createdAt,value
2022-11-01T00:02:01.263Z,100740.72
2022-11-01T00:04:29.025Z,100734.44
2022-11-01T00:06:56.991Z,100728.78
2022-11-01T00:09:26.113Z,100733.19
2022-11-01T00:11:53.971Z,100736.50
2022-11-01T00:14:21.884Z,100728.16
2022-11-01T00:16:49.734Z,100723.16
2022-11-01T00:19:17.967Z,100719.59
2022-11-01T00:21:45.712Z,100724.06
2022-11-01T00:24:13.364Z,100722.97
2022-11-01T00:26:42.712Z,100723.91
2022-11-01T00:29:11.969Z,100727.03
2022-11-01T00:31:39.624Z,100722.06
2022-11-01T00:34:07.344Z,100720.16
2022-11-01T00:36:35.798Z,100710.34
2022-11-01T00:39:03.708Z,100704.88
2022-11-01T00:41:31.451Z,100709.78
2022-11-01T00:44:00.867Z,100703.38
2022-11-01T00:46:28.523Z,100694.03
2022-11-01T00:48:56.150Z,100689.25
2022-11-01T00:51:23.835Z,100685.59
2022-11-01T00:53:51.528Z,100676.16
2022-11-01T00:56:19.413Z,100663.84
2022-11-01T00:58:47.062Z,100666.53
2022-11-01T01:01:16.310Z,100668.44
2022-11-01T01:03:44.033Z,100669.91
2022-11-01T01:06:12.071Z,100661.69
2022-11-01T01:08:39.834Z,100652.56
2022-11-01T01:11:07.619Z,100648.13
2022-11-01T01:13:35.284Z,100650.50
2022-11-01T01:16:08.421Z,100645.34
2022-11-01T01:18:37.734Z,100644.47
2022-11-01T01:21:06.822Z,100653.00
2022-11-01T01:23:34.635Z,100645.19
2022-11-01T01:26:06.774Z,100655.25
2022-11-01T01:28:35.917Z,100633.72
2022-11-01T01:31:07.453Z,100639.78
2022-11-01T01:33:37.387Z,100627.06
2022-11-01T01:36:07.057Z,100632.47
2022-11-01T01:38:34.735Z,100630.34
2022-11-01T01:41:16.407Z,100620.09
2022-11-01T01:43:45.113Z,100623.88
2022-11-01T01:46:12.836Z,100624.88
2022-11-01T01:48:44.065Z,100624.22
2022-11-01T01:51:15.800Z,100615.66
2022-11-01T01:53:46.156Z,100622.53
2022-11-01T01:56:18.648Z,100598.94
2022-11-01T01:58:50.967Z,100594.34
2022-11-01T02:01:19.364Z,100580.66
2022-11-01T02:03:48.944Z,100580.34
2022-11-01T02:06:18.456Z,100574.94
2022-11-01T02:08:48.983Z,100574.03
2022-11-01T02:11:18.478Z,100567.78
2022-11-01T02:13:46.213Z,100571.13
2022-11-01T02:16:47.341Z,100570.50
2022-11-01T02:19:46.679Z,100567.19
2022-11-01T02:22:18.833Z,100565.28
2022-11-01T02:25:10.608Z,100554.63
2022-11-01T02:28:01.969Z,100554.00
2022-11-01T02:30:40.185Z,100554.00
2022-11-01T02:33:18.128Z,100547.34
2022-11-01T02:35:56.960Z,100546.47
2022-11-01T02:38:30.312Z,100548.78
2022-11-01T02:41:08.359Z,100548.22
2022-11-01T02:43:43.219Z,100548.78
2022-11-01T02:46:28.523Z,100549.19
2022-11-01T02:48:58.843Z,100546.06
2022-11-01T02:51:29.341Z,100541.56
2022-11-01T02:54:02.115Z,100553.25
2022-11-01T02:56:30.084Z,100547.81
2022-11-01T02:58:58.807Z,100536.47
2022-11-01T03:01:30.226Z,100542.06
2022-11-01T03:04:01.322Z,100537.28
2022-11-01T03:06:35.306Z,100544.78
2022-11-01T03:09:08.154Z,100543.75
2022-11-01T03:11:45.527Z,100542.72
2022-11-01T03:14:25.328Z,100546.88
2022-11-01T03:16:59.973Z,100545.41
2022-11-01T03:19:38.651Z,100549.78
2022-11-01T03:22:11.933Z,100552.34
2022-11-01T03:24:46.551Z,100541.78
2022-11-01T03:27:18.433Z,100527.53
2022-11-01T03:29:56.282Z,100526.44
2022-11-01T03:32:27.680Z,100537.06
2022-11-01T03:35:00.416Z,100546.50
2022-11-01T03:37:29.953Z,100539.78
2022-11-01T03:40:02.730Z,100541.59
2022-11-01T03:42:31.860Z,100532.38
2022-11-01T03:45:03.823Z,100539.72
2022-11-01T03:47:31.452Z,100518.53
2022-11-01T03:50:17.704Z,100522.91
2022-11-01T03:52:46.004Z,100516.88
2022-11-01T03:55:20.815Z,100509.78
2022-11-01T03:57:49.764Z,100505.16
2022-11-01T04:00:19.682Z,100500.56
2022-11-01T04:02:47.945Z,100497.44
2022-11-01T04:08:03.762Z,100492.00
2022-11-01T04:10:31.480Z,100509.84
2022-11-01T04:13:00.183Z,100506.97
2022-11-01T04:15:46.052Z,100496.47
2022-11-01T04:18:34.573Z,100495.53
2022-11-01T04:21:07.144Z,100502.09
2022-11-01T04:23:35.067Z,100487.44
2022-11-01T04:26:03.559Z,100478.78
2022-11-01T04:28:31.313Z,100477.63
2022-11-01T04:30:59.085Z,100487.47
2022-11-01T04:33:26.753Z,100482.88
2022-11-01T04:35:54.400Z,100507.66
2022-11-01T04:38:23.622Z,100513.72
2022-11-01T04:40:51.376Z,100521.56
2022-11-01T04:43:19.152Z,100518.84
2022-11-01T04:45:54.682Z,100515.22
2022-11-01T04:48:22.486Z,100513.72
2022-11-01T04:50:50.373Z,100519.53
2022-11-01T04:53:18.126Z,100525.44
2022-11-01T04:55:47.182Z,100523.78
2022-11-01T04:58:14.871Z,100512.66
2022-11-01T05:00:43.802Z,100508.66
2022-11-01T05:03:11.797Z,100502.59
2022-11-01T05:05:40.448Z,100505.69
2022-11-01T05:08:09.821Z,100510.53
2022-11-01T05:10:39.518Z,100517.66
2022-11-01T05:13:09.027Z,100516.97
2022-11-01T05:15:39.962Z,100524.91
2022-11-01T05:18:15.872Z,100515.69
2022-11-01T05:20:43.561Z,100515.88
2022-11-01T05:23:11.436Z,100514.03
2022-11-01T05:25:39.186Z,100522.78
2022-11-01T05:28:12.130Z,100518.09
2022-11-01T05:30:40.040Z,100518.84
2022-11-01T05:33:08.933Z,100515.47
2022-11-01T05:35:37.107Z,100521.28
2022-11-01T05:38:06.078Z,100522.72
2022-11-01T05:40:34.483Z,100524.16
2022-11-01T05:43:02.471Z,100525.81
2022-11-01T05:45:31.823Z,100542.53
2022-11-01T05:48:03.281Z,100544.38
2022-11-01T05:50:31.192Z,100547.09
2022-11-01T05:53:05.593Z,100547.91
2022-11-01T05:55:33.313Z,100547.00
2022-11-01T05:58:01.021Z,100545.91
2022-11-01T06:00:28.899Z,100541.91
2022-11-01T06:02:59.838Z,100547.72
2022-11-01T06:05:28.373Z,100543.09
2022-11-01T06:07:56.433Z,100534.47
2022-11-01T06:10:24.366Z,100536.72
2022-11-01T06:12:52.284Z,100546.09
2022-11-01T06:15:20.303Z,100542.72
2022-11-01T06:17:48.179Z,100537.59
2022-11-01T06:20:17.476Z,100540.47
2022-11-01T06:22:45.094Z,100541.59
2022-11-01T06:25:12.997Z,100540.88
2022-11-01T06:27:40.664Z,100532.44
2022-11-01T06:30:10.045Z,100543.97
2022-11-01T06:32:37.856Z,100547.28
2022-11-01T06:35:06.334Z,100549.56
2022-11-01T06:37:37.928Z,100560.59
2022-11-01T06:40:13.989Z,100567.50
2022-11-01T06:42:46.334Z,100567.84
2022-11-01T06:45:15.154Z,100581.47
2022-11-01T06:47:49.855Z,100586.50
2022-11-01T06:50:17.953Z,100590.84
2022-11-01T06:52:46.977Z,100600.72
2022-11-01T06:55:14.864Z,100602.16
2022-11-01T06:57:42.634Z,100610.09
2022-11-01T07:00:11.541Z,100606.31
2022-11-01T07:02:39.379Z,100615.09
2022-11-01T07:05:08.334Z,100624.72
2022-11-01T07:07:35.974Z,100633.50
2022-11-01T07:10:05.522Z,100628.66
2022-11-01T07:12:33.190Z,100625.91
2022-11-01T07:15:00.916Z,100630.91
2022-11-01T07:17:28.549Z,100629.63
2022-11-01T07:19:56.203Z,100643.03
2022-11-01T07:22:24.360Z,100636.53
2022-11-01T07:24:52.064Z,100644.47
2022-11-01T07:27:21.057Z,100646.72
2022-11-01T07:29:49.044Z,100651.38
2022-11-01T07:32:16.708Z,100649.25
2022-11-01T07:34:44.367Z,100646.28
2022-11-01T07:37:12.203Z,100643.69
2022-11-01T07:39:40.150Z,100650.31
2022-11-01T07:42:07.827Z,100658.28
2022-11-01T07:44:37.857Z,100658.84
2022-11-01T07:47:05.612Z,100663.03
2022-11-01T07:49:33.300Z,100672.88
2022-11-01T07:52:02.898Z,100671.81
2022-11-01T07:54:30.735Z,100669.91
2022-11-01T07:56:58.432Z,100676.81
2022-11-01T07:59:26.123Z,100671.94
2022-11-01T08:01:55.261Z,100680.72
2022-11-01T08:04:23.236Z,100683.44
2022-11-01T08:06:52.261Z,100682.41
2022-11-01T08:09:21.870Z,100685.59
2022-11-01T08:11:50.793Z,100697.09
2022-11-01T08:14:18.504Z,100683.69
2022-11-01T08:16:49.730Z,100676.34
2022-11-01T08:19:18.717Z,100679.28
2022-11-01T08:21:46.493Z,100678.72
2022-11-01T08:24:14.110Z,100679.09
2022-11-01T08:26:41.755Z,100675.88
2022-11-01T08:29:09.472Z,100677.06
2022-11-01T08:31:41.444Z,100672.22
2022-11-01T08:34:13.028Z,100676.13
2022-11-01T08:36:45.344Z,100672.09
2022-11-01T08:39:13.211Z,100674.59
2022-11-01T08:41:41.018Z,100677.31
2022-11-01T08:44:08.943Z,100679.81
2022-11-01T08:46:36.637Z,100690.50
2022-11-01T08:49:04.300Z,100688.38
2022-11-01T08:51:32.752Z,100690.38
2022-11-01T08:54:01.883Z,100689.91
2022-11-01T08:56:30.072Z,100699.53
2022-11-01T08:58:57.861Z,100694.66
2022-11-01T09:01:27.035Z,100684.91
2022-11-01T09:03:57.912Z,100679.00
2022-11-01T09:06:28.970Z,100675.78
2022-11-01T09:08:58.852Z,100687.53
2022-11-01T09:11:27.968Z,100682.41
2022-11-01T09:13:57.769Z,100703.47
2022-11-01T09:16:25.832Z,100691.44
2022-11-01T09:18:53.540Z,100709.28
2022-11-01T09:21:21.191Z,100694.78
2022-11-01T09:23:48.845Z,100700.63
2022-11-01T09:26:16.659Z,100704.16
2022-11-01T09:28:45.775Z,100709.16
2022-11-01T09:31:20.821Z,100714.16
2022-11-01T09:33:49.341Z,100705.72
2022-11-01T09:36:17.225Z,100712.59
2022-11-01T09:38:44.907Z,100723.41
2022-11-01T09:41:27.175Z,100726.16
2022-11-01T09:44:01.024Z,100727.84
2022-11-01T09:46:32.579Z,100731.78
2022-11-01T09:49:03.719Z,100733.19
2022-11-01T09:51:31.650Z,100734.88
2022-11-01T09:54:04.294Z,100733.78
2022-11-01T09:56:41.139Z,100740.09
2022-11-01T09:59:19.683Z,100743.19
2022-11-01T10:02:05.812Z,100738.78
2022-11-01T10:04:55.753Z,100741.16
2022-11-01T10:07:32.339Z,100738.66
2022-11-01T10:10:07.506Z,100745.81
2022-11-01T10:12:47.828Z,100759.59
2022-11-01T10:15:29.001Z,100757.31
2022-11-01T10:18:07.612Z,100771.47
2022-11-01T10:20:40.257Z,100773.59
2022-11-01T10:23:08.165Z,100778.00
2022-11-01T10:25:39.961Z,100797.16
2022-11-01T10:28:17.192Z,100789.56
2022-11-01T10:30:50.122Z,100799.66
2022-11-01T10:33:26.888Z,100803.81
2022-11-01T10:35:59.189Z,100800.94
2022-11-01T10:41:29.671Z,100809.50
2022-11-01T10:44:01.380Z,100804.41
2022-11-01T10:46:37.603Z,100811.88
2022-11-01T10:49:12.383Z,100800.81
2022-11-01T10:51:43.205Z,100805.59
2022-11-01T10:54:18.866Z,100811.44
2022-11-01T10:56:50.226Z,100794.91
2022-11-01T10:59:21.679Z,100788.47
2022-11-01T11:01:52.998Z,100789.75
2022-11-01T11:04:22.956Z,100795.25
2022-11-01T11:06:51.368Z,100792.50
2022-11-01T11:09:23.833Z,100803.94
2022-11-01T11:11:52.342Z,100813.81
2022-11-01T11:14:21.742Z,100829.59
2022-11-01T11:16:55.786Z,100833.19
2022-11-01T11:19:32.127Z,100831.88
2022-11-01T11:22:01.113Z,100834.84
2022-11-01T11:24:34.468Z,100827.25
2022-11-01T11:27:03.778Z,100832.34
2022-11-01T11:29:37.622Z,100844.94
2022-11-01T11:32:14.948Z,100841.63
2022-11-01T11:34:43.169Z,100850.66
2022-11-01T11:37:20.584Z,100849.59
2022-11-01T11:40:22.460Z,100851.84
2022-11-01T11:42:51.182Z,100856.63
2022-11-01T11:45:28.291Z,100854.09
2022-11-01T11:47:58.952Z,100874.81
2022-11-01T11:50:35.904Z,100886.38
2022-11-01T11:53:16.869Z,100891.59
2022-11-01T11:55:47.757Z,100885.34
2022-11-01T11:58:21.538Z,100865.59
2022-11-01T12:00:53.588Z,100875.69
2022-11-01T12:03:23.434Z,100863.53
2022-11-01T12:05:56.707Z,100868.88
2022-11-01T12:08:46.043Z,100866.59
2022-11-01T12:11:14.989Z,100870.25
2022-11-01T12:13:45.627Z,100871.25
2022-11-01T12:16:20.428Z,100886.09
2022-11-01T12:18:53.107Z,100880.22
2022-11-01T12:21:25.406Z,100883.38
2022-11-01T12:23:57.288Z,100886.38
2022-11-01T12:26:27.355Z,100880.78
2022-11-01T12:29:03.741Z,100884.28
2022-11-01T12:31:32.049Z,100887.22
2022-11-01T12:34:06.328Z,100887.09
2022-11-01T12:36:42.790Z,100880.94
2022-11-01T12:39:34.125Z,100888.25
2022-11-01T12:42:04.844Z,100886.19
2022-11-01T12:44:36.084Z,100896.22
2022-11-01T12:47:15.746Z,100892.09
2022-11-01T12:49:50.825Z,100901.81
2022-11-01T12:52:26.879Z,100894.91
2022-11-01T12:55:04.165Z,100900.63
2022-11-01T12:57:33.908Z,100906.97
2022-11-01T13:00:02.820Z,100918.44
2022-11-01T13:02:57.558Z,100916.53
2022-11-01T13:05:35.313Z,100922.34
2022-11-01T13:08:13.251Z,100916.78
2022-11-01T13:10:44.665Z,100918.72
2022-11-01T13:13:22.485Z,100918.31
2022-11-01T13:15:59.387Z,100918.31
2022-11-01T13:18:40.858Z,100921.44
2022-11-01T13:21:17.826Z,100922.16
2022-11-01T13:23:53.206Z,100925.66
2022-11-01T13:26:25.617Z,100925.53
2022-11-01T13:29:02.219Z,100917.09
2022-11-01T13:31:39.570Z,100913.78
2022-11-01T13:34:18.901Z,100915.00
2022-11-01T13:36:58.122Z,100917.63
2022-11-01T13:39:34.025Z,100926.28
2022-11-01T13:42:08.752Z,100927.41
2022-11-01T13:44:42.303Z,100930.00
2022-11-01T13:47:28.251Z,100935.38
2022-11-01T13:50:26.749Z,100932.38
2022-11-01T13:53:05.485Z,100935.00
2022-11-01T13:55:38.072Z,100934.31
2022-11-01T13:58:06.782Z,100939.78
2022-11-01T14:00:41.339Z,100941.44
2022-11-01T14:03:29.456Z,100946.22
2022-11-01T14:06:26.456Z,100934.31
2022-11-01T14:09:24.065Z,100938.34
2022-11-01T14:11:58.516Z,100937.25
2022-11-01T14:14:53.733Z,100943.22
2022-11-01T14:18:00.731Z,100953.00
2022-11-01T14:20:43.801Z,100958.56
2022-11-01T14:23:51.356Z,100959.75
2022-11-01T14:26:47.137Z,100954.53
2022-11-01T14:29:18.280Z,100957.97
2022-11-01T14:31:48.955Z,100957.16
2022-11-01T14:34:32.661Z,100971.06
2022-11-01T14:37:13.874Z,100954.75
2022-11-01T14:39:48.060Z,100959.16
2022-11-01T14:42:22.956Z,100950.13
2022-11-01T14:44:54.842Z,100954.63
2022-11-01T14:47:33.266Z,100964.16
2022-11-01T14:50:06.874Z,100964.38
2022-11-01T14:52:40.850Z,100967.94
2022-11-01T14:55:18.205Z,100967.44
2022-11-01T14:57:48.408Z,100970.28
2022-11-01T15:00:26.728Z,100975.75
2022-11-01T15:02:56.145Z,100973.75
2022-11-01T15:05:24.473Z,100985.50
2022-11-01T15:07:54.959Z,100976.47
2022-11-01T15:10:23.135Z,100986.22
2022-11-01T15:12:53.949Z,100980.38
2022-11-01T15:15:25.926Z,100979.06
2022-11-01T15:17:57.091Z,100985.59
2022-11-01T15:20:29.609Z,100978.94
2022-11-01T15:23:00.038Z,100979.53
2022-11-01T15:25:28.143Z,100976.56
2022-11-01T15:28:00.784Z,100978.69
2022-11-01T15:30:32.032Z,100974.81
2022-11-01T15:33:17.202Z,100983.03
2022-11-01T15:35:54.305Z,100983.66
2022-11-01T15:38:22.184Z,100982.88
2022-11-01T15:40:52.143Z,100993.00
2022-11-01T15:43:22.646Z,100991.34
2022-11-01T15:45:56.263Z,100995.97
2022-11-01T15:48:28.437Z,100999.78
2022-11-01T15:50:58.365Z,100999.16
2022-11-01T15:53:30.252Z,101005.09
2022-11-01T15:56:03.729Z,101007.34
2022-11-01T15:58:37.998Z,101002.34
2022-11-01T16:01:13.053Z,101000.91
2022-11-01T16:03:45.941Z,101000.53
2022-11-01T16:06:19.082Z,101007.53
2022-11-01T16:08:51.740Z,101010.72
2022-11-01T16:11:22.555Z,101012.19
2022-11-01T16:13:53.142Z,101010.88
2022-11-01T16:16:22.226Z,101012.75
2022-11-01T16:18:50.054Z,101015.50
2022-11-01T16:21:31.031Z,101023.09
2022-11-01T16:24:05.376Z,101021.19
2022-11-01T16:26:53.291Z,101021.81
2022-11-01T16:29:39.020Z,101023.25
2022-11-01T16:32:16.680Z,101025.13
2022-11-01T16:34:44.621Z,101024.16
2022-11-01T16:37:23.690Z,101024.47
2022-11-01T16:39:51.476Z,101024.47
2022-11-01T16:42:19.981Z,101017.34
2022-11-01T16:44:51.332Z,101028.28
2022-11-01T16:47:20.854Z,101032.44
2022-11-01T16:49:51.242Z,101025.69
2022-11-01T16:52:19.847Z,101034.03
2022-11-01T16:54:49.774Z,101034.44
2022-11-01T16:57:23.922Z,101037.97
2022-11-01T16:59:52.259Z,101037.38
2022-11-01T17:02:23.908Z,101040.94
2022-11-01T17:04:55.915Z,101037.97
2022-11-01T17:07:24.387Z,101039.66
2022-11-01T17:09:52.281Z,101031.06
2022-11-01T17:12:20.556Z,101037.16
2022-11-01T17:14:51.123Z,101042.00
2022-11-01T17:17:24.550Z,101045.56
2022-11-01T17:19:59.281Z,101034.88
2022-11-01T17:22:36.165Z,101033.81
2022-11-01T17:25:05.335Z,101043.28
2022-11-01T17:27:33.247Z,101040.78
2022-11-01T17:30:01.096Z,101038.50
2022-11-01T17:32:30.350Z,101042.91
2022-11-01T17:34:58.038Z,101040.03
2022-11-01T17:37:27.321Z,101044.66
2022-11-01T17:39:55.086Z,101044.91
2022-11-01T17:42:22.821Z,101048.06
2022-11-01T17:44:50.813Z,101046.44
2022-11-01T17:47:18.780Z,101040.25
2022-11-01T17:49:47.961Z,101047.56
2022-11-01T17:52:15.689Z,101050.94
2022-11-01T17:54:43.403Z,101050.19
2022-11-01T17:57:11.265Z,101052.13
2022-11-01T17:59:39.041Z,101048.34
2022-11-01T18:02:09.479Z,101045.78
2022-11-01T18:04:37.388Z,101048.44
2022-11-01T18:07:09.690Z,101055.13
2022-11-01T18:09:38.240Z,101053.44
2022-11-01T18:12:13.063Z,101056.88
2022-11-01T18:17:32.750Z,101053.09
2022-11-01T18:20:07.230Z,101064.06
2022-11-01T18:22:49.208Z,101066.09
2022-11-01T18:25:25.340Z,101062.38
2022-11-01T18:27:56.186Z,101061.09
2022-11-01T18:30:24.464Z,101059.84
2022-11-01T18:32:58.552Z,101073.88
2022-11-01T18:35:33.823Z,101063.19
2022-11-01T18:38:18.782Z,101064.28
2022-11-01T18:40:57.796Z,101057.34
2022-11-01T18:43:28.299Z,101056.31
2022-11-01T18:46:24.537Z,101056.31
2022-11-01T18:48:44.649Z,101056.94
2022-11-01T18:51:17.403Z,101063.03
2022-11-01T18:53:46.773Z,101058.44
2022-11-01T18:56:21.423Z,101057.59
2022-11-01T18:58:51.224Z,101058.88
2022-11-01T19:01:21.386Z,101062.44
2022-11-01T19:03:59.841Z,101059.94
2022-11-01T19:06:27.686Z,101063.31
2022-11-01T19:08:58.247Z,101068.34
2022-11-01T19:11:27.557Z,101067.34
2022-11-01T19:13:58.177Z,101073.25
2022-11-01T19:16:27.006Z,101064.44
2022-11-01T19:18:54.904Z,101069.34
2022-11-01T19:21:25.135Z,101068.59
2022-11-01T19:23:55.005Z,101076.94
2022-11-01T19:26:34.891Z,101072.53
2022-11-01T19:29:12.152Z,101074.22
2022-11-01T19:31:40.627Z,101067.72
2022-11-01T19:34:17.468Z,101077.00
2022-11-01T19:36:45.602Z,101068.41
2022-11-01T19:39:23.061Z,101078.50
2022-11-01T19:41:54.408Z,101074.34
2022-11-01T19:44:24.546Z,101076.63
2022-11-01T19:46:55.835Z,101081.25
2022-11-01T19:49:25.532Z,101079.59
2022-11-01T19:52:22.058Z,101081.03
2022-11-01T19:54:53.009Z,101089.22
2022-11-01T19:57:31.321Z,101094.28
2022-11-01T20:00:12.526Z,101103.72
2022-11-01T20:02:40.609Z,101102.72
2022-11-01T20:05:24.890Z,101102.94
2022-11-01T20:07:54.135Z,101104.63
2022-11-01T20:10:21.832Z,101108.84
2022-11-01T20:12:51.051Z,101104.66
2022-11-01T20:15:18.807Z,101113.09
2022-11-01T20:17:49.124Z,101116.66
2022-11-01T20:20:18.117Z,101107.41
2022-11-01T20:22:54.879Z,101132.16
2022-11-01T20:25:35.003Z,101124.84
2022-11-01T20:28:04.559Z,101137.41
2022-11-01T20:30:32.842Z,101123.97
2022-11-01T20:33:00.583Z,101127.91
2022-11-01T20:35:28.543Z,101121.84
2022-11-01T20:37:56.340Z,101130.84
2022-11-01T20:40:25.305Z,101141.13
2022-11-01T20:42:56.817Z,101144.47
2022-11-01T20:45:26.066Z,101151.81
2022-11-01T20:47:53.835Z,101151.81
2022-11-01T20:50:21.869Z,101156.41
2022-11-01T20:52:50.380Z,101157.03
2022-11-01T20:55:18.591Z,101147.59
2022-11-01T20:57:46.998Z,101163.75
2022-11-01T21:00:18.223Z,101158.75
2022-11-01T21:02:47.929Z,101163.78
2022-11-01T21:05:24.166Z,101160.06
2022-11-01T21:07:55.054Z,101160.06
2022-11-01T21:10:34.839Z,101151.69
2022-11-01T21:13:04.594Z,101160.06
2022-11-01T21:15:40.107Z,101147.88
2022-11-01T21:18:32.589Z,101148.28
2022-11-01T21:21:20.873Z,101148.09
2022-11-01T21:23:48.840Z,101140.53
2022-11-01T21:26:19.287Z,101149.13
2022-11-01T21:28:48.996Z,101140.31
2022-11-01T21:31:26.328Z,101138.03
2022-11-01T21:33:57.649Z,101136.34
2022-11-01T21:36:29.835Z,101141.19
2022-11-01T21:39:00.361Z,101134.28
2022-11-01T21:41:33.276Z,101134.66
2022-11-01T21:44:21.048Z,101141.59
2022-11-01T21:46:50.618Z,101135.31
2022-11-01T21:49:29.713Z,101133.63
2022-11-01T21:52:00.425Z,101130.72
2022-11-01T21:54:29.588Z,101135.75
2022-11-01T21:56:58.193Z,101122.69
2022-11-01T21:59:25.985Z,101121.41
2022-11-01T22:01:55.260Z,101118.69
2022-11-01T22:04:27.780Z,101116.38
2022-11-01T22:06:58.527Z,101110.94
2022-11-01T22:09:26.843Z,101112.38
2022-11-01T22:11:54.732Z,101104.47
2022-11-01T22:14:22.762Z,101096.50
2022-11-01T22:16:50.764Z,101104.88
2022-11-01T22:19:18.643Z,101103.84
2022-11-01T22:21:47.454Z,101101.75
2022-11-01T22:24:16.791Z,101113.97
2022-11-01T22:26:44.617Z,101111.50
2022-11-01T22:29:12.499Z,101114.88
2022-11-01T22:31:40.735Z,101113.25
2022-11-01T22:34:09.175Z,101107.56
2022-11-01T22:36:37.770Z,101109.44
2022-11-01T22:39:15.275Z,101102.75
2022-11-01T22:41:44.596Z,101105.06
2022-11-01T22:44:15.278Z,101096.06
2022-11-01T22:46:46.769Z,101097.09
2022-11-01T22:49:19.767Z,101089.78
2022-11-01T22:51:50.458Z,101096.72
2022-11-01T22:54:29.926Z,101103.22
2022-11-01T22:57:04.051Z,101115.97
2022-11-01T22:59:35.693Z,101110.75
2022-11-01T23:02:24.737Z,101097.56
2022-11-01T23:04:58.900Z,101087.72
2022-11-01T23:07:34.367Z,101083.94
2022-11-01T23:10:06.108Z,101079.53
2022-11-01T23:12:55.213Z,101092.34
2022-11-01T23:15:27.389Z,101091.25
2022-11-01T23:18:01.458Z,101078.31
2022-11-01T23:20:29.716Z,101088.97
2022-11-01T23:22:57.540Z,101079.34
2022-11-01T23:25:26.707Z,101082.28
2022-11-01T23:27:55.782Z,101083.97
2022-11-01T23:30:23.502Z,101083.31
2022-11-01T23:32:51.518Z,101065.09
2022-11-01T23:35:21.596Z,101067.22
2022-11-01T23:37:50.638Z,101080.19
2022-11-01T23:40:21.203Z,101063.03
2022-11-01T23:42:49.961Z,101067.81
2022-11-01T23:45:28.645Z,101065.31
2022-11-01T23:47:57.020Z,101062.38
2022-11-01T23:50:29.154Z,101055.91
2022-11-01T23:52:59.096Z,101059.63
2022-11-01T23:55:30.619Z,101060.69
2022-11-01T23:58:00.927Z,101065.53
